createdAt,value
2023-01-01T00:01:28.470Z,22.43
2023-01-01T00:06:30.855Z,16.20
2023-01-01T00:11:33.242Z,15.30
2023-01-01T00:16:36.005Z,19.30
2023-01-01T00:21:40.136Z,16.40
2023-01-01T00:26:42.539Z,16.37
2023-01-01T00:31:45.734Z,13.53
2023-01-01T00:36:48.221Z,12.93
2023-01-01T00:41:50.589Z,12.50
2023-01-01T00:46:52.955Z,15.37
2023-01-01T00:51:55.853Z,13.10
2023-01-01T00:56:58.409Z,13.63
2023-01-01T01:02:00.954Z,15.17
2023-01-01T01:07:04.112Z,9.70
2023-01-01T01:12:17.905Z,10.33
2023-01-01T01:17:21.362Z,10.03
2023-01-01T01:22:28.329Z,9.50
2023-01-01T01:27:31.895Z,8.17
2023-01-01T01:32:34.281Z,6.87
2023-01-01T01:37:36.730Z,8.83
2023-01-01T01:42:39.179Z,7.20
2023-01-01T01:47:56.695Z,8.23
2023-01-01T01:53:08.965Z,8.07
2023-01-01T01:58:14.909Z,7.00
2023-01-01T02:03:32.028Z,7.70
2023-01-01T02:08:35.256Z,8.17
2023-01-01T02:13:37.748Z,7.57
2023-01-01T02:19:08.039Z,5.33
2023-01-01T02:24:10.396Z,5.27
2023-01-01T02:29:27.420Z,5.83
2023-01-01T02:34:35.261Z,6.77
2023-01-01T02:39:42.408Z,8.40
2023-01-01T02:44:49.083Z,7.73
2023-01-01T02:49:56.538Z,7.47
2023-01-01T02:55:08.470Z,5.97
2023-01-01T03:00:31.399Z,7.53
2023-01-01T03:06:14.554Z,8.77
2023-01-01T03:11:19.857Z,6.13
2023-01-01T03:16:32.870Z,7.87
2023-01-01T03:21:35.982Z,11.47
2023-01-01T03:26:40.674Z,13.40
2023-01-01T03:31:46.119Z,10.90
2023-01-01T03:36:55.283Z,10.37
2023-01-01T03:42:25.739Z,12.67
2023-01-01T03:47:29.390Z,12.83
2023-01-01T03:52:51.037Z,12.30
2023-01-01T03:58:01.128Z,10.03
2023-01-01T04:03:17.597Z,12.47
2023-01-01T04:08:20.494Z,12.33
2023-01-01T04:13:23.411Z,8.97
2023-01-01T04:18:25.736Z,9.87
2023-01-01T04:23:28.114Z,10.40
2023-01-01T04:28:30.587Z,13.57
2023-01-01T04:33:33.097Z,8.90
2023-01-01T04:38:38.896Z,9.37
2023-01-01T04:43:41.366Z,9.43
2023-01-01T04:48:44.292Z,9.57
2023-01-01T04:53:46.871Z,9.80
2023-01-01T04:58:50.172Z,9.83
2023-01-01T05:03:52.888Z,6.50
2023-01-01T05:08:56.672Z,8.90
2023-01-01T05:14:00.383Z,8.43
2023-01-01T05:19:03.353Z,8.43
2023-01-01T05:24:08.325Z,6.27
2023-01-01T05:29:16.456Z,9.23
2023-01-01T05:34:19.251Z,11.97
2023-01-01T05:39:21.754Z,11.57
2023-01-01T05:44:24.103Z,6.37
2023-01-01T05:49:26.502Z,8.77
2023-01-01T05:54:28.914Z,13.00
2023-01-01T05:59:31.331Z,21.93
2023-01-01T06:04:33.765Z,12.80
2023-01-01T06:09:36.130Z,9.90
2023-01-01T06:14:38.479Z,12.57
2023-01-01T06:19:40.994Z,10.00
2023-01-01T06:24:43.445Z,10.67
2023-01-01T06:29:45.939Z,8.47
2023-01-01T06:34:48.737Z,11.40
2023-01-01T06:39:51.223Z,11.47
2023-01-01T06:44:53.614Z,6.10
2023-01-01T06:49:55.996Z,6.10
2023-01-01T06:54:58.342Z,9.07
2023-01-01T07:00:01.380Z,9.80
2023-01-01T07:05:03.889Z,8.83
2023-01-01T07:10:06.736Z,6.83
2023-01-01T07:15:09.506Z,9.10
2023-01-01T07:20:13.926Z,13.13
2023-01-01T07:25:16.611Z,9.37
2023-01-01T07:30:20.219Z,14.03
2023-01-01T07:35:22.895Z,12.33
2023-01-01T07:40:25.254Z,6.83
2023-01-01T07:45:28.054Z,13.23
2023-01-01T07:50:32.511Z,11.87
2023-01-01T07:55:34.968Z,13.67
2023-01-01T08:00:37.439Z,11.30
2023-01-01T08:05:39.852Z,9.50
2023-01-01T08:10:42.253Z,10.40
2023-01-01T08:15:44.763Z,17.40
2023-01-01T08:20:47.136Z,12.57
2023-01-01T08:25:49.498Z,26.13
2023-01-01T08:30:51.889Z,13.60
2023-01-01T08:35:54.986Z,12.70
2023-01-01T08:40:57.472Z,11.40
2023-01-01T08:46:02.839Z,10.80
2023-01-01T08:51:05.890Z,8.07
2023-01-01T08:56:10.655Z,14.33
2023-01-01T09:01:13.561Z,13.00
2023-01-01T09:06:16.017Z,12.07
2023-01-01T09:11:26.166Z,8.73
2023-01-01T09:16:28.561Z,11.87
2023-01-01T09:21:30.927Z,18.77
2023-01-01T09:26:33.341Z,8.43
2023-01-01T09:31:35.767Z,9.73
2023-01-01T09:36:38.294Z,15.40
2023-01-01T09:42:10.050Z,26.17
2023-01-01T09:47:41.257Z,8.97
2023-01-01T09:53:07.991Z,9.03
2023-01-01T09:58:12.007Z,9.33
2023-01-01T10:03:31.157Z,9.57
2023-01-01T10:08:54.537Z,8.03
2023-01-01T10:13:59.644Z,11.00
2023-01-01T10:19:24.872Z,9.30
2023-01-01T10:24:51.681Z,14.80
2023-01-01T10:29:59.591Z,10.13
2023-01-01T10:35:37.835Z,8.10
2023-01-01T10:40:40.326Z,11.07
2023-01-01T10:45:47.243Z,11.03
2023-01-01T10:50:55.346Z,12.47
2023-01-01T10:55:59.869Z,14.17
2023-01-01T11:01:04.614Z,10.33
2023-01-01T11:06:22.885Z,10.33
2023-01-01T11:11:30.984Z,13.53
2023-01-01T11:16:33.727Z,13.63
2023-01-01T11:21:36.234Z,19.77
2023-01-01T11:26:38.645Z,16.57
2023-01-01T11:31:41.382Z,14.63
2023-01-01T11:36:43.780Z,17.53
2023-01-01T11:41:51.866Z,13.80
2023-01-01T11:46:54.372Z,15.03
2023-01-01T11:51:58.270Z,17.43
2023-01-01T11:57:18.124Z,16.23
2023-01-01T12:02:43.495Z,18.13
2023-01-01T12:07:46.756Z,23.53
2023-01-01T12:12:57.511Z,22.77
2023-01-01T12:18:10.794Z,14.80
2023-01-01T12:23:16.637Z,16.00
2023-01-01T12:28:43.805Z,12.47
2023-01-01T12:34:13.098Z,15.57
2023-01-01T12:39:42.175Z,14.27
2023-01-01T12:45:30.884Z,17.20
2023-01-01T12:50:54.998Z,16.40
2023-01-01T12:56:04.627Z,24.37
2023-01-01T13:01:14.508Z,13.17
2023-01-01T13:06:28.335Z,13.73
2023-01-01T13:11:31.811Z,17.40
2023-01-01T13:16:41.462Z,22.80
2023-01-01T13:21:43.873Z,25.67
2023-01-01T13:26:47.005Z,18.27
2023-01-01T13:31:49.409Z,26.90
2023-01-01T13:36:51.824Z,17.63
2023-01-01T13:41:54.250Z,26.63
2023-01-01T13:47:14.044Z,19.97
2023-01-01T13:52:31.977Z,498.43
2023-01-01T13:58:11.362Z,103.43
2023-01-01T14:03:16.922Z,23.47
2023-01-01T14:08:31.424Z,36.40
2023-01-01T14:13:41.681Z,20.73
2023-01-01T14:18:50.034Z,25.67
2023-01-01T14:24:02.185Z,20.80
2023-01-01T14:29:09.794Z,30.57
2023-01-01T14:34:30.564Z,44.10
2023-01-01T14:39:37.059Z,39.93
2023-01-01T14:44:46.266Z,45.47
2023-01-01T14:49:50.581Z,33.70
2023-01-01T14:54:53.937Z,51.70
2023-01-01T15:01:12.215Z,37.87
2023-01-01T15:06:17.841Z,55.50
2023-01-01T15:11:28.287Z,42.30
2023-01-01T15:16:39.744Z,50.10
2023-01-01T15:21:42.829Z,45.03
2023-01-01T15:27:01.468Z,71.27
2023-01-01T15:32:07.392Z,73.13
2023-01-01T15:37:16.316Z,70.63
2023-01-01T15:42:33.522Z,81.37
2023-01-01T15:47:38.754Z,102.43
2023-01-01T15:52:44.484Z,102.63
2023-01-01T15:57:49.119Z,97.20
2023-01-01T16:02:54.424Z,81.17
2023-01-01T16:08:05.102Z,82.00
2023-01-01T16:13:08.578Z,82.50
2023-01-01T16:18:13.115Z,75.13
2023-01-01T16:23:17.708Z,74.13
2023-01-01T16:28:20.132Z,74.63
2023-01-01T16:33:25.672Z,105.97
2023-01-01T16:38:28.063Z,118.77
2023-01-01T16:43:30.458Z,138.37
2023-01-01T16:48:32.912Z,160.27
2023-01-01T16:53:36.642Z,144.10
2023-01-01T16:59:02.361Z,124.43
2023-01-01T17:04:02.359Z,127.90
2023-01-01T17:09:05.977Z,259.13
2023-01-01T17:14:10.482Z,227.80
2023-01-01T17:19:15.480Z,196.77
2023-01-01T17:24:20.611Z,118.13
2023-01-01T17:29:23.904Z,108.93
2023-01-01T17:34:26.315Z,101.43
2023-01-01T17:39:28.721Z,127.17
2023-01-01T17:44:31.133Z,114.20
2023-01-01T17:49:33.582Z,105.93
2023-01-01T17:54:37.175Z,110.90
2023-01-01T17:59:39.546Z,116.37
2023-01-01T18:04:42.127Z,107.87
2023-01-01T18:09:44.518Z,212.17
2023-01-01T18:14:46.900Z,245.60
2023-01-01T18:19:49.690Z,213.63
2023-01-01T18:24:52.204Z,172.83
2023-01-01T18:29:54.635Z,145.70
2023-01-01T18:34:57.425Z,141.30
2023-01-01T18:40:00.332Z,134.07
2023-01-01T18:45:16.450Z,111.80
2023-01-01T18:50:27.660Z,117.70
2023-01-01T18:55:31.332Z,111.93
2023-01-01T19:00:37.592Z,118.63
2023-01-01T19:05:40.879Z,180.70
2023-01-01T19:10:46.314Z,106.70
2023-01-01T19:15:52.873Z,90.43
2023-01-01T19:21:12.073Z,169.23
2023-01-01T19:26:29.329Z,109.93
2023-01-01T19:31:31.754Z,99.30
2023-01-01T19:36:34.161Z,110.07
2023-01-01T19:41:36.928Z,128.93
2023-01-01T19:46:39.577Z,123.60
2023-01-01T19:51:42.132Z,95.23
2023-01-01T19:56:45.240Z,54.93
2023-01-01T20:02:03.354Z,60.67
2023-01-01T20:07:10.007Z,70.77
2023-01-01T20:12:12.387Z,53.77
2023-01-01T20:17:14.940Z,55.17
2023-01-01T20:22:18.129Z,49.90
2023-01-01T20:27:26.918Z,50.23
2023-01-01T20:32:29.392Z,46.37
2023-01-01T20:37:37.529Z,56.90
2023-01-01T20:42:39.946Z,60.17
2023-01-01T20:47:42.381Z,90.50
2023-01-01T20:52:45.146Z,95.03
2023-01-01T20:57:47.573Z,63.70
2023-01-01T21:02:50.080Z,88.03
2023-01-01T21:07:52.576Z,84.80
2023-01-01T21:12:55.102Z,74.57
2023-01-01T21:17:57.568Z,74.87
2023-01-01T21:23:01.304Z,79.87
2023-01-01T21:28:12.810Z,75.37
2023-01-01T21:33:28.041Z,53.90
2023-01-01T21:38:31.853Z,52.20
2023-01-01T21:43:47.976Z,47.23
2023-01-01T21:49:22.306Z,49.97
2023-01-01T21:54:33.163Z,44.30
2023-01-01T21:59:38.469Z,53.43
2023-01-01T22:04:45.184Z,47.93
2023-01-01T22:09:49.356Z,54.80
2023-01-01T22:14:53.748Z,60.47
2023-01-01T22:20:19.110Z,53.00
2023-01-01T22:25:29.871Z,43.37
2023-01-01T22:30:42.276Z,33.87
2023-01-01T22:35:45.725Z,43.97
2023-01-01T22:40:51.280Z,49.67
2023-01-01T22:45:54.364Z,53.30
2023-01-01T22:50:58.658Z,47.00
2023-01-01T22:56:01.069Z,44.07
2023-01-01T23:01:03.558Z,53.00
2023-01-01T23:06:06.702Z,46.03
2023-01-01T23:11:09.186Z,49.87
2023-01-01T23:16:11.590Z,43.73
2023-01-01T23:21:26.511Z,50.53
2023-01-01T23:26:30.672Z,44.33
2023-01-01T23:31:33.853Z,45.27
2023-01-01T23:36:36.741Z,47.77
2023-01-01T23:41:39.208Z,47.03
2023-01-01T23:46:41.706Z,50.03
2023-01-01T23:51:44.406Z,41.67
2023-01-01T23:56:46.825Z,47.07
